Time;durP1;ratioP1;P1;durP2;ratioP2;P2;SDS_P1;SDS_P2;PMS_P1;PMS_P2;Temp;Humidity;BMP_temperature;BMP_pressure;BME280_temperature;BME280_humidity;BME280_pressure;Samples;Min_cycle;Max_cycle;Signal;HPM_P1;HPM_P2
2023/08/15 00:01:15;;;;;;;3.95;0.00;;;18.70;99.90;;;;;;5033432;28;20036;-78
2023/08/15 00:03:40;;;;;;;3.97;0.55;;;18.70;99.90;;;;;;5037334;28;20057;-77
2023/08/15 00:06:06;;;;;;;3.35;0.43;;;18.70;99.90;;;;;;5034508;28;20028;-78
2023/08/15 00:08:32;;;;;;;2.67;0.20;;;20.80;99.90;;;;;;5036383;28;20039;-77
2023/08/15 00:10:57;;;;;;;5.82;0.20;;;18.70;99.90;;;;;;5035297;28;20051;-78
2023/08/15 00:13:23;;;;;;;1.58;0.47;;;18.60;99.90;;;;;;5037003;28;20466;-78
2023/08/15 00:15:48;;;;;;;1.98;0.00;;;18.60;99.90;;;;;;5034827;28;20025;-78
2023/08/15 00:18:14;;;;;;;0.70;0.13;;;18.90;99.90;;;;;;5033924;28;20029;-77
2023/08/15 00:20:39;;;;;;;5.43;0.75;;;18.70;99.90;;;;;;5035822;28;20033;-77
2023/08/15 00:23:05;;;;;;;2.78;0.30;;;18.60;99.90;;;;;;5034230;28;20148;-74
2023/08/15 00:25:30;;;;;;;0.75;0.00;;;18.60;99.90;;;;;;5033047;28;20014;-74
2023/08/15 00:27:56;;;;;;;4.35;0.47;;;18.60;99.90;;;;;;5033287;28;20047;-74
2023/08/15 00:30:21;;;;;;;5.47;0.30;;;18.50;99.90;;;;;;5033167;28;20022;-75
2023/08/15 00:32:47;;;;;;;1.50;0.10;;;18.50;99.90;;;;;;5033753;28;20026;-75
2023/08/15 00:35:13;;;;;;;0.82;0.10;;;18.40;99.90;;;;;;5031959;28;20014;-75
2023/08/15 00:37:38;;;;;;;1.85;0.30;;;18.40;99.90;;;;;;5033827;28;20057;-74
2023/08/15 00:40:04;;;;;;;0.95;0.15;;;18.30;99.90;;;;;;5033144;28;20022;-74
2023/08/15 00:42:30;;;;;;;0.95;0.10;;;18.30;99.90;;;;;;5033203;28;20033;-76
2023/08/15 00:44:56;;;;;;;2.80;0.32;;;18.30;99.90;;;;;;5033133;28;20535;-74
2023/08/15 00:47:23;;;;;;;4.45;0.43;;;18.20;99.90;;;;;;5033041;28;20080;-75
2023/08/15 00:49:49;;;;;;;1.27;0.00;;;18.20;99.90;;;;;;5033104;28;20104;-75
2023/08/15 00:52:17;;;;;;;3.05;0.20;;;18.20;99.90;;;;;;5033023;28;20022;-75
2023/08/15 00:54:46;;;;;;;2.55;0.40;;;18.20;99.90;;;;;;5033000;28;20037;-75
2023/08/15 00:57:12;;;;;;;4.55;0.17;;;18.20;99.90;;;;;;5032953;28;20017;-74
2023/08/15 00:59:38;;;;;;;0.98;0.00;;;18.10;99.90;;;;;;5033089;28;20021;-75
2023/08/15 01:02:03;;;;;;;1.20;0.30;;;18.10;99.90;;;;;;5033335;28;20071;-75
2023/08/15 01:04:31;;;;;;;4.00;0.70;;;18.10;99.90;;;;;;5032821;28;20473;-75
2023/08/15 01:06:57;;;;;;;1.70;0.00;;;18.10;99.90;;;;;;5033039;28;20025;-75
2023/08/15 01:09:23;;;;;;;4.30;0.00;;;18.10;99.90;;;;;;5034197;28;20399;-75
2023/08/15 01:12:02;;;;;;;1.55;0.15;;;18.10;99.90;;;;;;5035383;28;20021;-75
2023/08/15 01:14:40;;;;;;;4.45;0.35;;;18.10;99.90;;;;;;5037101;28;20025;-75
2023/08/15 01:17:10;;;;;;;1.73;0.10;;;18.10;99.90;;;;;;5035394;28;20480;-75
2023/08/15 01:19:43;;;;;;;1.95;0.20;;;18.00;99.90;;;;;;5036583;28;20021;-75
2023/08/15 01:22:22;;;;;;;2.20;0.05;;;18.00;99.90;;;;;;5035586;28;20477;-75
2023/08/15 01:24:48;;;;;;;2.97;0.10;;;18.00;99.90;;;;;;5036438;28;20052;-75
2023/08/15 01:27:14;;;;;;;9.93;0.17;;;17.90;99.90;;;;;;5036369;28;20073;-75
2023/08/15 01:29:40;;;;;;;2.33;0.00;;;17.90;99.90;;;;;;5036894;28;20056;-75
2023/08/15 01:32:14;;;;;;;1.05;0.00;;;17.90;99.90;;;;;;5037000;28;20041;-74
2023/08/15 01:34:50;;;;;;;5.00;0.73;;;18.00;99.90;;;;;;5036800;28;20036;-75
2023/08/15 01:37:29;;;;;;;3.42;0.00;;;18.00;99.90;;;;;;5036916;28;20014;-75
2023/08/15 01:39:57;;;;;;;3.85;0.03;;;18.00;99.90;;;;;;5036913;28;20035;-75
2023/08/15 01:42:24;;;;;;;5.50;0.03;;;18.10;99.90;;;;;;5034846;28;20017;-75
2023/08/15 01:44:50;;;;;;;1.88;0.30;;;18.00;99.90;;;;;;5036285;28;20029;-75
2023/08/15 01:47:16;;;;;;;2.50;0.10;;;18.10;99.90;;;;;;5036177;28;20100;-75
2023/08/15 01:49:41;;;;;;;3.50;0.32;;;18.00;99.90;;;;;;5036621;28;20056;-74
2023/08/15 01:52:07;;;;;;;2.08;0.30;;;18.00;99.90;;;;;;5035925;28;20018;-75
2023/08/15 01:54:32;;;;;;;4.15;0.05;;;18.00;99.90;;;;;;5036428;28;20034;-75
2023/08/15 01:56:58;;;;;;;3.10;0.20;;;17.90;99.90;;;;;;5036405;28;20048;-75
2023/08/15 01:59:23;;;;;;;1.55;0.00;;;17.90;99.90;;;;;;5035768;28;20401;-75
2023/08/15 02:01:49;;;;;;;4.07;0.20;;;17.90;99.90;;;;;;5036186;28;20048;-75
2023/08/15 02:04:14;;;;;;;3.45;0.38;;;17.90;99.90;;;;;;5035724;28;20021;-75
2023/08/15 02:06:40;;;;;;;3.70;0.10;;;17.80;99.90;;;;;;5035609;28;20022;-74
2023/08/15 02:09:06;;;;;;;1.35;0.10;;;17.80;99.90;;;;;;5035707;28;20412;-75
2023/08/15 02:11:31;;;;;;;2.10;0.00;;;17.70;99.90;;;;;;5035811;28;20544;-74
2023/08/15 02:13:58;;;;;;;1.75;0.10;;;17.70;99.90;;;;;;5035714;28;20036;-75
2023/08/15 02:16:23;;;;;;;3.85;0.43;;;17.70;99.90;;;;;;5035540;28;20026;-75
2023/08/15 02:18:49;;;;;;;3.88;0.10;;;17.70;99.90;;;;;;5035540;28;20040;-74
2023/08/15 02:21:15;;;;;;;3.10;0.10;;;17.60;99.90;;;;;;5034385;28;20362;-75
2023/08/15 02:23:40;;;;;;;4.40;0.22;;;17.60;99.90;;;;;;5034159;28;20362;-75
2023/08/15 02:26:06;;;;;;;5.10;0.10;;;17.60;99.90;;;;;;5035563;28;20026;-75
2023/08/15 02:28:31;;;;;;;6.38;0.68;;;17.70;99.90;;;;;;5035227;28;20033;-75
2023/08/15 02:30:57;;;;;;;5.05;0.50;;;17.60;99.90;;;;;;5035394;28;20093;-75
2023/08/15 02:33:23;;;;;;;3.35;0.28;;;17.70;99.90;;;;;;5035195;28;20033;-75
2023/08/15 02:35:51;;;;;;;3.67;0.28;;;17.70;99.90;;;;;;5035132;28;20029;-74
2023/08/15 02:38:16;;;;;;;5.05;0.40;;;17.70;99.90;;;;;;5035196;28;20025;-75
2023/08/15 02:40:42;;;;;;;3.70;0.32;;;17.70;99.90;;;;;;5035089;28;20485;-75
2023/08/15 02:43:08;;;;;;;4.68;0.73;;;17.80;99.90;;;;;;5033740;28;20026;-75
2023/08/15 02:45:34;;;;;;;5.03;0.30;;;17.90;99.90;;;;;;5034857;28;20029;-75
2023/08/15 02:47:59;;;;;;;4.93;0.57;;;17.90;99.90;;;;;;5035009;28;20032;-75
2023/08/15 02:50:35;;;;;;;6.93;0.50;;;18.00;99.90;;;;;;5035349;28;20136;-75
2023/08/15 02:53:01;;;;;;;5.38;0.40;;;18.00;99.90;;;;;;5016949;28;20046;-75
2023/08/15 02:55:26;;;;;;;6.63;0.50;;;18.00;99.90;;;;;;5034637;28;20032;-75
2023/08/15 02:57:52;;;;;;;8.25;1.33;;;18.00;99.90;;;;;;5035113;28;20380;-75
2023/08/15 03:00:17;;;;;;;6.65;0.60;;;18.10;99.90;;;;;;5034619;28;20033;-75
2023/08/15 03:02:43;;;;;;;3.65;0.40;;;18.10;99.90;;;;;;5034793;28;20027;-75
2023/08/15 03:05:08;;;;;;;3.53;0.35;;;18.10;99.90;;;;;;5034630;28;20032;-75
2023/08/15 03:07:34;;;;;;;4.30;0.75;;;18.00;99.90;;;;;;5034537;28;20072;-75
2023/08/15 03:09:59;;;;;;;3.45;0.52;;;18.00;99.90;;;;;;5033195;28;20033;-75
2023/08/15 03:12:25;;;;;;;6.47;0.88;;;18.20;99.90;;;;;;5033305;28;20076;-75
2023/08/15 03:14:50;;;;;;;5.13;0.47;;;18.00;99.90;;;;;;5034299;28;20100;-75
2023/08/15 03:17:18;;;;;;;3.83;0.65;;;17.90;99.90;;;;;;5034352;28;20505;-75
2023/08/15 03:19:44;;;;;;;3.97;0.63;;;17.90;99.90;;;;;;5034338;28;20021;-75
2023/08/15 03:22:09;;;;;;;4.32;0.75;;;17.80;99.90;;;;;;5034227;28;20026;-75
2023/08/15 03:24:36;;;;;;;9.07;1.17;;;17.80;99.90;;;;;;5034007;28;20089;-75
2023/08/15 03:27:01;;;;;;;3.70;0.73;;;17.70;99.90;;;;;;5034246;28;20148;-75
2023/08/15 03:29:27;;;;;;;9.48;1.27;;;17.80;99.90;;;;;;5034109;28;20057;-75
2023/08/15 03:31:55;;;;;;;2.78;0.52;;;17.70;99.90;;;;;;5034527;28;20136;-75
2023/08/15 03:34:21;;;;;;;4.82;0.75;;;17.70;99.90;;;;;;5034127;28;20028;-75
2023/08/15 03:36:47;;;;;;;5.90;0.82;;;17.60;99.90;;;;;;5033895;28;20037;-75
2023/08/15 03:39:13;;;;;;;2.40;0.17;;;17.50;99.90;;;;;;5033749;28;20497;-74
2023/08/15 03:41:38;;;;;;;7.15;0.98;;;17.50;99.90;;;;;;5032523;28;20022;-75
2023/08/15 03:44:04;;;;;;;4.45;0.60;;;17.40;99.90;;;;;;5033702;28;20024;-74
2023/08/15 03:46:30;;;;;;;5.55;0.63;;;17.30;99.90;;;;;;5034115;28;20029;-75
2023/08/15 03:48:55;;;;;;;4.22;0.82;;;17.30;99.90;;;;;;5034107;28;20021;-75
2023/08/15 03:51:21;;;;;;;5.32;0.20;;;17.20;99.90;;;;;;5033618;28;20033;-75
2023/08/15 03:53:46;;;;;;;8.27;0.68;;;17.10;99.90;;;;;;5033628;28;20032;-75
2023/08/15 03:56:12;;;;;;;3.42;0.30;;;17.00;99.90;;;;;;5033425;28;20044;-75
2023/08/15 03:58:37;;;;;;;5.07;0.22;;;17.00;99.90;;;;;;5033781;28;20037;-75
2023/08/15 04:01:04;;;;;;;1.80;0.30;;;16.90;99.90;;;;;;5033538;28;20083;-75
2023/08/15 04:03:29;;;;;;;4.72;0.52;;;16.90;99.90;;;;;;5033427;28;20422;-75
2023/08/15 04:05:55;;;;;;;2.83;0.22;;;16.90;99.90;;;;;;5033420;28;20093;-76
2023/08/15 04:08:21;;;;;;;6.53;0.68;;;16.80;99.90;;;;;;5033501;28;20021;-74
2023/08/15 04:10:47;;;;;;;4.70;0.20;;;16.80;99.90;;;;;;5033398;28;20030;-75
2023/08/15 04:13:13;;;;;;;4.80;0.80;;;16.80;99.90;;;;;;5033713;28;20025;-75
2023/08/15 04:15:39;;;;;;;5.30;0.30;;;16.70;99.90;;;;;;5033159;28;20036;-75
2023/08/15 04:18:06;;;;;;;5.63;0.82;;;16.70;99.90;;;;;;5033190;28;20034;-75
2023/08/15 04:20:34;;;;;;;4.18;0.63;;;16.70;99.90;;;;;;5033205;28;20041;-75
2023/08/15 04:23:00;;;;;;;8.27;1.13;;;16.70;99.90;;;;;;5033187;28;20017;-74
2023/08/15 04:25:25;;;;;;;7.55;0.40;;;16.70;99.90;;;;;;5033176;28;20472;-74
2023/08/15 04:27:51;;;;;;;10.80;0.73;;;16.60;99.90;;;;;;5033441;28;20021;-74
2023/08/15 04:30:18;;;;;;;7.00;0.75;;;16.60;99.90;;;;;;5033403;28;20029;-76
2023/08/15 04:32:47;;;;;;;3.22;0.52;;;16.70;99.90;;;;;;5033220;28;20104;-74
2023/08/15 04:35:13;;;;;;;9.52;1.27;;;16.70;99.90;;;;;;5033038;28;20025;-75
2023/08/15 04:37:39;;;;;;;3.03;0.40;;;16.70;99.90;;;;;;5031961;28;20025;-75
2023/08/15 04:40:05;;;;;;;8.85;0.93;;;16.70;99.90;;;;;;5033604;28;20366;-75
2023/08/15 04:42:30;;;;;;;5.60;0.75;;;16.70;99.90;;;;;;5033161;28;20088;-75
2023/08/15 04:44:56;;;;;;;4.93;0.75;;;16.70;99.90;;;;;;5036841;28;20018;-75
2023/08/15 04:47:21;;;;;;;6.63;0.90;;;16.70;99.90;;;;;;5037289;28;20033;-75
2023/08/15 04:49:47;;;;;;;1.52;0.20;;;16.60;99.90;;;;;;5037240;28;20124;-75
2023/08/15 04:52:15;;;;;;;4.78;0.45;;;16.60;99.90;;;;;;5036982;28;20017;-75
2023/08/15 04:54:44;;;;;;;4.38;0.60;;;16.70;99.90;;;;;;5037428;28;20108;-75
2023/08/15 04:57:09;;;;;;;5.32;0.63;;;16.60;99.90;;;;;;5037030;28;20516;-74
2023/08/15 04:59:35;;;;;;;4.03;1.10;;;16.70;99.90;;;;;;5036893;28;20040;-74
2023/08/15 05:02:01;;;;;;;6.88;0.93;;;16.70;99.90;;;;;;5035474;28;20021;-75
2023/08/15 05:04:26;;;;;;;8.55;1.50;;;16.80;99.90;;;;;;5036735;28;20022;-75
2023/08/15 05:06:52;;;;;;;9.27;0.77;;;16.90;99.90;;;;;;5037335;28;20076;-75
2023/08/15 05:09:20;;;;;;;5.65;0.45;;;16.90;99.90;;;;;;5035484;28;20025;-75
2023/08/15 05:11:46;;;;;;;9.98;1.50;;;17.00;99.90;;;;;;5036750;28;20060;-74
2023/08/15 05:14:11;;;;;;;3.30;0.70;;;17.20;99.90;;;;;;5036892;28;20029;-75
2023/08/15 05:16:37;;;;;;;5.70;1.08;;;17.30;99.90;;;;;;5036583;28;20029;-75
2023/08/15 05:19:03;;;;;;;11.48;1.30;;;17.30;99.90;;;;;;5037086;28;20022;-74
2023/08/15 05:21:28;;;;;;;5.47;0.98;;;17.40;99.90;;;;;;5036985;28;20108;-74
2023/08/15 05:23:54;;;;;;;5.97;0.40;;;17.40;99.90;;;;;;5036888;28;20025;-75
2023/08/15 05:26:19;;;;;;;2.80;0.73;;;17.50;99.90;;;;;;5035434;28;20489;-75
2023/08/15 05:28:45;;;;;;;9.02;0.85;;;17.60;99.90;;;;;;5036341;28;20033;-74
2023/08/15 05:31:10;;;;;;;7.82;1.08;;;17.70;99.90;;;;;;5037446;28;20025;-75
2023/08/15 05:33:36;;;;;;;11.23;0.52;;;17.80;99.90;;;;;;5036306;28;20040;-75
2023/08/15 05:36:02;;;;;;;5.68;0.82;;;17.90;99.90;;;;;;5034910;28;20048;-75
2023/08/15 05:38:27;;;;;;;10.27;0.98;;;18.10;99.90;;;;;;5036292;28;20068;-75
2023/08/15 05:40:53;;;;;;;4.40;0.77;;;18.10;99.90;;;;;;5036184;28;20481;-75
2023/08/15 05:43:18;;;;;;;9.77;0.80;;;18.20;99.90;;;;;;5036207;28;20027;-75
2023/08/15 05:45:48;;;;;;;4.13;0.60;;;18.30;99.90;;;;;;5036232;28;20030;-75
2023/08/15 05:48:13;;;;;;;7.60;0.80;;;18.40;99.90;;;;;;5036066;28;20366;-75
2023/08/15 05:50:39;;;;;;;9.25;1.42;;;18.50;99.90;;;;;;5036068;28;20029;-75
2023/08/15 05:53:04;;;;;;;7.80;0.68;;;18.60;99.90;;;;;;5035986;28;20485;-75
2023/08/15 05:55:30;;;;;;;6.50;0.32;;;18.70;99.90;;;;;;5034682;28;20033;-74
2023/08/15 05:57:55;;;;;;;8.93;1.33;;;18.80;99.90;;;;;;5036434;28;20105;-74
2023/08/15 06:00:21;;;;;;;4.43;0.32;;;18.80;99.90;;;;;;5035611;28;20057;-75
2023/08/15 06:02:47;;;;;;;7.63;1.20;;;19.00;99.90;;;;;;5036465;28;20026;-75
2023/08/15 06:05:12;;;;;;;6.40;0.82;;;19.00;99.90;;;;;;5035719;28;20021;-75
2023/08/15 06:07:38;;;;;;;5.43;1.08;;;19.10;99.90;;;;;;5035603;28;20493;-75
2023/08/15 06:10:04;;;;;;;10.85;0.70;;;19.10;99.90;;;;;;5035737;28;20030;-75
2023/08/15 06:12:30;;;;;;;9.32;0.35;;;19.20;99.90;;;;;;5035494;28;20017;-75
2023/08/15 06:14:55;;;;;;;5.00;0.55;;;19.30;99.90;;;;;;5035556;28;20152;-75
2023/08/15 06:17:21;;;;;;;4.60;0.20;;;19.60;99.90;;;;;;5035138;28;20055;-74
2023/08/15 06:19:46;;;;;;;5.22;0.40;;;19.50;99.90;;;;;;5034282;28;20110;-75
2023/08/15 06:22:12;;;;;;;5.90;0.73;;;19.80;99.90;;;;;;5033460;28;20025;-75
2023/08/15 06:24:37;;;;;;;4.60;0.57;;;19.90;99.90;;;;;;5034973;28;20503;-75
2023/08/15 06:27:03;;;;;;;13.13;1.02;;;19.80;99.90;;;;;;5034831;28;20049;-75
2023/08/15 06:29:28;;;;;;;6.53;1.02;;;19.80;99.90;;;;;;5034857;28;20026;-74
2023/08/15 06:31:54;;;;;;;4.85;0.45;;;19.80;99.90;;;;;;5035135;28;20560;-74
2023/08/15 06:34:19;;;;;;;7.88;0.82;;;19.80;99.90;;;;;;5035334;28;20480;-75
2023/08/15 06:36:45;;;;;;;7.20;0.43;;;19.80;99.90;;;;;;5035253;28;20055;-75
2023/08/15 06:39:11;;;;;;;9.40;1.17;;;19.80;99.90;;;;;;5033966;28;20064;-74
2023/08/15 06:41:37;;;;;;;6.60;1.20;;;19.80;99.90;;;;;;5035019;28;20052;-75
2023/08/15 06:44:03;;;;;;;4.75;0.32;;;19.80;99.90;;;;;;5034996;28;20029;-74
2023/08/15 06:46:29;;;;;;;8.05;0.30;;;19.90;99.90;;;;;;5034936;28;20017;-75
2023/08/15 06:48:55;;;;;;;4.82;0.85;;;19.90;99.90;;;;;;5034812;28;20025;-74
2023/08/15 06:51:20;;;;;;;11.27;0.88;;;19.90;99.90;;;;;;5034913;28;20029;-74
2023/08/15 06:53:49;;;;;;;5.85;0.52;;;19.90;99.90;;;;;;5035454;28;20104;-74
2023/08/15 06:56:15;;;;;;;4.88;1.00;;;20.00;99.90;;;;;;5033451;28;20453;-75
2023/08/15 06:58:40;;;;;;;6.72;0.25;;;20.00;99.90;;;;;;5035106;28;20025;-75
2023/08/15 07:01:06;;;;;;;7.68;1.20;;;20.00;99.90;;;;;;5034600;28;20402;-74
2023/08/15 07:03:33;;;;;;;7.15;0.40;;;20.00;99.90;;;;;;5033363;28;20021;-75
2023/08/15 07:05:59;;;;;;;7.72;0.90;;;20.00;99.90;;;;;;5034132;28;20619;-75
2023/08/15 07:08:24;;;;;;;7.97;0.80;;;20.00;99.90;;;;;;5034497;28;20053;-75
2023/08/15 07:10:56;;;;;;;7.03;0.50;;;20.10;99.90;;;;;;5034724;28;20029;-75
2023/08/15 07:13:22;;;;;;;11.15;1.77;;;20.10;99.90;;;;;;5034546;28;20026;-75
2023/08/15 07:15:55;;;;;;;6.72;1.13;;;20.10;99.90;;;;;;5033102;28;20116;-75
2023/08/15 07:18:21;;;;;;;5.28;0.73;;;20.00;99.90;;;;;;5033360;28;20057;-75
2023/08/15 07:20:47;;;;;;;5.47;0.57;;;19.90;99.90;;;;;;5034956;28;20048;-75
2023/08/15 07:23:12;;;;;;;6.72;0.38;;;20.00;99.90;;;;;;5034471;28;20104;-74
2023/08/15 07:25:41;;;;;;;6.80;0.55;;;20.00;99.90;;;;;;5034242;28;20018;-75
2023/08/15 07:28:07;;;;;;;11.07;1.13;;;19.90;99.90;;;;;;5034378;28;20029;-74
2023/08/15 07:30:33;;;;;;;7.65;0.80;;;19.90;99.90;;;;;;5032884;28;20117;-74
2023/08/15 07:32:59;;;;;;;8.18;1.45;;;19.70;99.90;;;;;;5034036;28;20065;-73
2023/08/15 07:35:24;;;;;;;4.22;0.50;;;19.80;99.90;;;;;;5032905;28;20048;-74
2023/08/15 07:37:50;;;;;;;9.65;1.08;;;20.00;99.90;;;;;;5034070;28;20079;-75
2023/08/15 07:40:19;;;;;;;7.15;1.83;;;20.20;99.90;;;;;;5032632;28;20021;-74
2023/08/15 07:42:46;;;;;;;5.80;0.45;;;20.40;99.90;;;;;;5034062;28;20013;-75
2023/08/15 07:45:11;;;;;;;5.18;1.30;;;20.50;99.90;;;;;;5033799;28;20013;-74
2023/08/15 07:47:38;;;;;;;6.78;0.80;;;20.70;99.90;;;;;;5034066;28;20048;-75
2023/08/15 07:50:13;;;;;;;5.30;0.60;;;20.80;99.90;;;;;;5032607;28;20093;-75
2023/08/15 07:52:39;;;;;;;5.05;0.73;;;21.00;99.90;;;;;;5033748;28;20091;-74
2023/08/15 07:55:08;;;;;;;5.30;0.68;;;21.10;99.90;;;;;;5034358;28;20022;-74
2023/08/15 07:57:34;;;;;;;7.13;1.40;;;21.10;99.90;;;;;;5033781;28;20017;-75
2023/08/15 07:59:59;;;;;;;2.35;0.25;;;21.10;99.90;;;;;;5033585;28;20394;-74
2023/08/15 08:02:25;;;;;;;5.53;1.08;;;21.00;99.90;;;;;;5033568;28;20026;-75
2023/08/15 08:04:51;;;;;;;2.97;0.68;;;21.00;99.90;;;;;;5033685;28;20017;-75
2023/08/15 08:07:16;;;;;;;6.78;1.30;;;20.90;99.90;;;;;;5033565;28;20022;-75
2023/08/15 08:09:42;;;;;;;6.60;1.27;;;20.90;99.90;;;;;;5033541;28;20025;-75
2023/08/15 08:12:08;;;;;;;7.57;1.60;;;21.10;99.90;;;;;;5033522;28;20032;-75
2023/08/15 08:14:34;;;;;;;3.50;1.60;;;21.20;99.90;;;;;;5032211;28;20049;-74
2023/08/15 08:17:00;;;;;;;3.65;1.17;;;21.30;99.90;;;;;;5033411;28;20076;-74
2023/08/15 08:19:25;;;;;;;5.82;1.55;;;21.30;99.90;;;;;;5032810;28;20025;-75
2023/08/15 08:21:51;;;;;;;5.07;2.05;;;21.40;99.90;;;;;;5033297;28;20543;-75
2023/08/15 08:24:17;;;;;;;10.32;2.72;;;21.60;99.90;;;;;;5033497;28;20048;-75
2023/08/15 08:26:42;;;;;;;5.88;2.22;;;21.60;99.90;;;;;;5033450;28;20032;-74
2023/08/15 08:29:10;;;;;;;4.70;1.92;;;21.60;99.90;;;;;;5033213;28;20048;-74
2023/08/15 08:31:37;;;;;;;6.22;2.03;;;21.60;99.90;;;;;;5033251;28;20029;-74
2023/08/15 08:34:03;;;;;;;5.45;1.25;;;21.60;99.90;;;;;;5033281;28;20039;-75
2023/08/15 08:36:28;;;;;;;3.78;1.85;;;21.70;99.90;;;;;;5032047;28;20022;-74
2023/08/15 08:38:54;;;;;;;4.07;2.45;;;21.90;99.90;;;;;;5032000;28;20021;-75
2023/08/15 08:41:19;;;;;;;5.20;1.70;;;22.00;99.90;;;;;;5033170;28;20034;-74
2023/08/15 08:43:46;;;;;;;7.00;2.45;;;22.00;99.90;;;;;;5033774;28;20377;-75
2023/08/15 08:46:13;;;;;;;5.85;1.58;;;22.20;99.90;;;;;;5033072;28;20516;-74
2023/08/15 08:48:41;;;;;;;2.75;1.75;;;22.70;99.90;;;;;;5032001;28;20112;-74
2023/08/15 08:51:08;;;;;;;3.43;1.40;;;22.70;99.90;;;;;;5033004;28;20477;-75
2023/08/15 08:53:34;;;;;;;9.18;2.58;;;22.90;99.90;;;;;;5033221;28;20037;-75
2023/08/15 08:56:01;;;;;;;4.97;1.60;;;23.00;99.90;;;;;;5033095;28;20123;-75
2023/08/15 08:58:29;;;;;;;5.88;2.20;;;23.00;99.90;;;;;;5034085;28;20036;-74
2023/08/15 09:00:58;;;;;;;6.00;1.88;;;23.00;99.90;;;;;;5032780;28;20503;-75
2023/08/15 09:03:24;;;;;;;4.40;1.77;;;23.00;99.90;;;;;;5033046;28;20017;-76
2023/08/15 09:05:51;;;;;;;7.15;2.53;;;22.80;99.90;;;;;;5033212;28;20022;-76
2023/08/15 09:08:16;;;;;;;6.63;3.00;;;22.50;99.90;;;;;;5033013;28;20109;-76
2023/08/15 09:10:44;;;;;;;6.20;2.25;;;22.50;99.90;;;;;;5032033;28;20136;-75
2023/08/15 09:13:10;;;;;;;7.50;3.10;;;22.60;99.90;;;;;;5031529;28;20192;-75
2023/08/15 09:15:36;;;;;;;11.20;2.65;;;22.50;99.90;;;;;;5032832;28;20095;-75
2023/08/15 09:18:06;;;;;;;7.03;2.13;;;22.30;99.90;;;;;;5031523;28;20057;-75
2023/08/15 09:20:33;;;;;;;7.35;2.50;;;22.30;99.90;;;;;;5032815;28;20469;-76
2023/08/15 09:23:00;;;;;;;5.55;2.05;;;22.30;99.90;;;;;;5033186;28;20044;-76
2023/08/15 09:25:27;;;;;;;6.75;2.47;;;22.40;99.90;;;;;;5032788;28;20477;-75
2023/08/15 09:27:53;;;;;;;5.53;2.08;;;22.30;99.90;;;;;;5033349;28;20488;-76
2023/08/15 09:30:19;;;;;;;7.65;1.20;;;22.10;99.90;;;;;;5035536;28;20013;-76
2023/08/15 09:32:46;;;;;;;4.28;1.08;;;22.10;99.90;;;;;;5035110;28;20022;-75
2023/08/15 09:35:13;;;;;;;4.18;1.35;;;22.10;99.90;;;;;;5036466;28;20022;-76
2023/08/15 09:37:49;;;;;;;5.53;1.35;;;21.90;99.90;;;;;;5035127;28;20022;-76
2023/08/15 09:40:22;;;;;;;2.42;1.10;;;21.90;99.90;;;;;;5034987;28;20079;-76
2023/08/15 09:42:48;;;;;;;4.57;2.13;;;21.90;99.90;;;;;;5036606;28;20028;-77
2023/08/15 09:45:15;;;;;;;4.25;1.83;;;21.70;99.90;;;;;;5036084;28;20022;-76
2023/08/15 09:47:41;;;;;;;3.80;1.45;;;21.70;99.90;;;;;;5034942;28;20133;-76
2023/08/15 09:50:08;;;;;;;6.88;1.30;;;21.70;99.90;;;;;;5036155;28;20485;-76
2023/08/15 09:52:41;;;;;;;5.68;2.13;;;21.80;99.90;;;;;;5036083;28;20081;-76
2023/08/15 09:55:11;;;;;;;8.45;1.88;;;21.80;99.90;;;;;;5036138;28;20022;-76
2023/08/15 09:57:38;;;;;;;9.02;2.08;;;21.80;99.90;;;;;;5034805;28;20025;-76
2023/08/15 10:00:06;;;;;;;2.95;1.38;;;21.80;99.90;;;;;;5036125;28;20447;-75
2023/08/15 10:02:33;;;;;;;4.65;1.40;;;21.70;99.90;;;;;;5034667;28;20053;-76
2023/08/15 10:05:06;;;;;;;2.47;1.38;;;21.70;99.90;;;;;;5035824;28;20026;-75
2023/08/15 10:07:33;;;;;;;6.07;2.13;;;21.70;99.90;;;;;;5035868;28;20021;-75
2023/08/15 10:10:03;;;;;;;5.32;2.13;;;21.70;99.90;;;;;;5035939;28;20452;-75
2023/08/15 10:12:30;;;;;;;5.57;1.25;;;21.90;99.90;;;;;;5034762;28;20374;-76
2023/08/15 10:14:57;;;;;;;2.38;0.88;;;21.90;99.90;;;;;;5035849;28;20481;-76
2023/08/15 10:17:28;;;;;;;4.80;0.80;;;21.90;99.90;;;;;;5034571;28;20017;-76
2023/08/15 10:19:54;;;;;;;5.85;0.88;;;22.00;99.90;;;;;;5036342;28;20025;-76
2023/08/15 10:22:20;;;;;;;4.47;0.68;;;21.90;99.90;;;;;;5035502;28;20091;-76
2023/08/15 10:24:48;;;;;;;6.53;0.88;;;21.70;99.90;;;;;;5034406;28;20408;-75
2023/08/15 10:27:14;;;;;;;;;;;21.90;99.90;;;;;;5036482;28;20070;-75
2023/08/15 10:30:06;;;;;;;4.57;0.50;;;22.00;99.90;;;;;;5035988;28;20372;-75
2023/08/15 10:32:33;;;;;;;4.93;0.93;;;22.30;99.90;;;;;;5034210;28;20044;-76
2023/08/15 10:34:59;;;;;;;5.22;1.05;;;23.10;99.90;;;;;;5035288;28;20021;-76
2023/08/15 10:37:29;;;;;;;3.63;0.68;;;22.80;99.90;;;;;;5034248;28;20030;-76
2023/08/15 10:40:11;;;;;;;8.13;1.25;;;22.60;99.90;;;;;;5035926;28;20504;-77
2023/08/15 10:43:07;;;;;;;6.40;0.85;;;22.60;99.90;;;;;;5034603;28;20052;-75
2023/08/15 10:46:00;;;;;;;4.97;0.50;;;22.80;99.90;;;;;;5034451;28;20088;-76
2023/08/15 10:48:47;;;;;;;3.65;0.65;;;22.90;99.90;;;;;;5035269;28;20014;-76
2023/08/15 10:51:45;;;;;;;5.60;0.10;;;23.10;99.90;;;;;;5034886;28;20026;-75
2023/08/15 10:54:16;;;;;;;2.47;0.30;;;23.00;99.90;;;;;;5023245;28;20561;-76
2023/08/15 10:56:42;;;;;;;3.53;0.40;;;23.10;99.90;;;;;;5035598;28;20025;-76
2023/08/15 10:59:11;;;;;;;2.58;0.35;;;23.20;99.90;;;;;;5034754;28;20125;-76
2023/08/15 11:01:39;;;;;;;1.23;0.05;;;23.30;99.90;;;;;;5035446;28;20100;-77
2023/08/15 11:04:08;;;;;;;6.00;0.38;;;23.40;99.90;;;;;;5033372;28;20070;-76
2023/08/15 11:06:53;;;;;;;3.78;0.47;;;23.30;99.90;;;;;;5034710;28;20021;-75
2023/08/15 11:09:29;;;;;;;6.82;0.57;;;23.30;99.90;;;;;;5035187;28;20034;-73
2023/08/15 11:12:08;;;;;;;1.45;0.20;;;23.30;99.90;;;;;;5035070;28;20025;-74
2023/08/15 11:14:34;;;;;;;2.45;0.00;;;23.40;99.90;;;;;;5034480;28;20053;-75
2023/08/15 11:16:59;;;;;;;3.05;0.10;;;23.50;99.90;;;;;;5034477;28;20132;-75
2023/08/15 11:19:25;;;;;;;3.05;0.55;;;23.60;99.90;;;;;;5034590;28;20029;-75
2023/08/15 11:21:51;;;;;;;2.40;0.10;;;23.60;99.90;;;;;;5034740;28;20025;-77
2023/08/15 11:24:16;;;;;;;9.65;0.10;;;23.20;99.90;;;;;;5034353;28;20025;-76
2023/08/15 11:26:42;;;;;;;1.80;0.20;;;23.10;99.90;;;;;;5034562;28;20093;-76
2023/08/15 11:29:10;;;;;;;2.28;0.05;;;23.10;99.90;;;;;;5034667;28;20022;-77
2023/08/15 11:31:37;;;;;;;4.05;0.43;;;23.10;99.90;;;;;;5033043;28;20083;-75
2023/08/15 11:34:06;;;;;;;3.25;0.17;;;22.70;99.90;;;;;;5034769;28;20108;-76
2023/08/15 11:36:32;;;;;;;1.25;0.20;;;22.70;99.90;;;;;;5033116;28;20018;-76
2023/08/15 11:39:00;;;;;;;5.90;0.40;;;23.40;99.90;;;;;;5034704;28;20574;-76
2023/08/15 11:41:26;;;;;;;6.50;0.30;;;23.10;99.90;;;;;;5034278;28;20033;-76
2023/08/15 11:43:51;;;;;;;0.90;0.10;;;23.30;99.90;;;;;;5033470;28;20026;-76
2023/08/15 11:46:17;;;;;;;2.38;0.10;;;23.20;99.90;;;;;;5034547;28;20476;-76
2023/08/15 11:48:46;;;;;;;1.42;0.10;;;23.50;99.90;;;;;;5034435;28;20063;-77
2023/08/15 11:51:20;;;;;;;4.95;0.85;;;23.40;99.90;;;;;;5033447;28;20487;-77
2023/08/15 11:53:53;;;;;;;2.00;0.10;;;23.70;99.90;;;;;;5032912;28;20095;-77
2023/08/15 11:56:19;;;;;;;0.22;0.00;;;23.90;99.90;;;;;;5032884;28;20018;-74
2023/08/15 11:58:45;;;;;;;1.73;0.30;;;24.00;99.90;;;;;;5033828;28;20036;-74
2023/08/15 12:01:11;;;;;;;1.73;0.10;;;24.00;99.90;;;;;;5033743;28;20033;-75
2023/08/15 12:03:38;;;;;;;1.88;0.60;;;24.10;99.90;;;;;;5032402;28;20097;-74
2023/08/15 12:06:10;;;;;;;0.82;0.10;;;24.10;99.90;;;;;;5033692;28;20172;-75
2023/08/15 12:08:39;;;;;;;1.35;0.00;;;24.00;99.90;;;;;;5033676;28;20040;-74
2023/08/15 12:11:08;;;;;;;0.43;0.08;;;24.10;99.90;;;;;;5033498;28;20026;-75
2023/08/15 12:13:35;;;;;;;0.10;0.00;;;24.50;99.90;;;;;;5033509;28;20029;-76
2023/08/15 12:16:02;;;;;;;0.73;0.00;;;24.90;99.90;;;;;;5033486;28;20029;-76
2023/08/15 12:18:28;;;;;;;0.00;0.00;;;24.80;99.90;;;;;;5032330;28;20511;-75
2023/08/15 12:20:55;;;;;;;0.90;0.00;;;24.70;99.90;;;;;;5033428;28;20440;-75
2023/08/15 12:23:20;;;;;;;0.20;0.13;;;24.30;99.90;;;;;;5033527;28;20032;-74
2023/08/15 12:25:46;;;;;;;1.00;0.00;;;24.60;99.90;;;;;;5033436;28;20026;-74
2023/08/15 12:28:12;;;;;;;1.30;0.00;;;24.80;99.90;;;;;;5033908;28;20109;-74
2023/08/15 12:30:38;;;;;;;0.05;0.00;;;25.30;99.90;;;;;;5033490;28;20066;-75
2023/08/15 12:33:05;;;;;;;0.20;0.00;;;25.80;99.90;;;;;;5033343;28;20026;-74
2023/08/15 12:35:32;;;;;;;0.17;0.10;;;25.90;99.90;;;;;;5033184;28;20022;-75
2023/08/15 12:37:58;;;;;;;0.20;0.00;;;25.90;99.90;;;;;;5034915;28;20048;-78
2023/08/15 12:40:23;;;;;;;0.63;0.10;;;25.90;99.90;;;;;;5035301;28;20055;-78
2023/08/15 12:42:49;;;;;;;0.20;0.00;;;25.90;99.90;;;;;;5034969;28;20025;-77
2023/08/15 12:45:14;;;;;;;0.00;0.00;;;25.90;99.90;;;;;;5034755;28;20032;-77